sensor_id;sensor_type;location;lat;lon;timestamp;P1;durP1;ratioP1;P2;durP2;ratioP2
55417;SDS011;41287;47.554;7.844;2023-04-15T00:00:11;6.10;;;1.27;;
55417;SDS011;41287;47.554;7.844;2023-04-15T00:02:36;2.80;;;1.35;;
55417;SDS011;41287;47.554;7.844;2023-04-15T00:05:02;1.80;;;0.90;;
55417;SDS011;41287;47.554;7.844;2023-04-15T00:07:28;3.38;;;1.10;;
55417;SDS011;41287;47.554;7.844;2023-04-15T00:09:54;7.47;;;1.23;;
55417;SDS011;41287;47.554;7.844;2023-04-15T00:12:21;4.60;;;1.08;;
55417;SDS011;41287;47.554;7.844;2023-04-15T00:14:52;2.88;;;1.10;;
55417;SDS011;41287;47.554;7.844;2023-04-15T00:17:18;3.17;;;1.00;;
55417;SDS011;41287;47.554;7.844;2023-04-15T00:19:44;2.45;;;1.05;;
55417;SDS011;41287;47.554;7.844;2023-04-15T00:22:09;3.22;;;1.00;;
55417;SDS011;41287;47.554;7.844;2023-04-15T00:24:36;3.90;;;1.20;;
55417;SDS011;41287;47.554;7.844;2023-04-15T00:27:01;5.50;;;1.23;;
55417;SDS011;41287;47.554;7.844;2023-04-15T00:29:27;2.28;;;1.02;;
55417;SDS011;41287;47.554;7.844;2023-04-15T00:31:53;2.33;;;1.17;;
55417;SDS011;41287;47.554;7.844;2023-04-15T00:34:19;4.85;;;1.35;;
55417;SDS011;41287;47.554;7.844;2023-04-15T00:36:44;3.83;;;0.90;;
55417;SDS011;41287;47.554;7.844;2023-04-15T00:39:11;3.33;;;1.10;;
55417;SDS011;41287;47.554;7.844;2023-04-15T00:41:37;2.97;;;1.10;;
55417;SDS011;41287;47.554;7.844;2023-04-15T00:44:04;2.50;;;1.20;;
55417;SDS011;41287;47.554;7.844;2023-04-15T00:46:30;3.10;;;1.13;;
55417;SDS011;41287;47.554;7.844;2023-04-15T00:48:59;4.28;;;1.20;;
55417;SDS011;41287;47.554;7.844;2023-04-15T00:51:25;3.72;;;1.27;;
55417;SDS011;41287;47.554;7.844;2023-04-15T00:53:50;3.72;;;1.20;;
55417;SDS011;41287;47.554;7.844;2023-04-15T00:56:18;4.47;;;1.42;;
55417;SDS011;41287;47.554;7.844;2023-04-15T00:58:48;3.72;;;1.17;;
55417;SDS011;41287;47.554;7.844;2023-04-15T01:03:51;4.63;;;1.30;;
55417;SDS011;41287;47.554;7.844;2023-04-15T01:06:19;3.25;;;1.30;;
55417;SDS011;41287;47.554;7.844;2023-04-15T01:08:45;1.92;;;0.80;;
55417;SDS011;41287;47.554;7.844;2023-04-15T01:11:11;2.20;;;1.02;;
55417;SDS011;41287;47.554;7.844;2023-04-15T01:13:37;1.98;;;0.88;;
55417;SDS011;41287;47.554;7.844;2023-04-15T01:16:03;5.75;;;1.23;;
55417;SDS011;41287;47.554;7.844;2023-04-15T01:18:28;2.15;;;0.82;;
55417;SDS011;41287;47.554;7.844;2023-04-15T01:20:54;4.07;;;1.10;;
55417;SDS011;41287;47.554;7.844;2023-04-15T01:23:20;2.92;;;1.20;;
55417;SDS011;41287;47.554;7.844;2023-04-15T01:25:47;2.00;;;1.08;;
55417;SDS011;41287;47.554;7.844;2023-04-15T01:28:15;4.05;;;1.27;;
55417;SDS011;41287;47.554;7.844;2023-04-15T01:30:40;3.45;;;1.30;;
55417;SDS011;41287;47.554;7.844;2023-04-15T01:33:06;4.05;;;1.38;;
55417;SDS011;41287;47.554;7.844;2023-04-15T01:35:36;3.85;;;1.05;;
55417;SDS011;41287;47.554;7.844;2023-04-15T01:38:04;1.90;;;1.08;;
55417;SDS011;41287;47.554;7.844;2023-04-15T01:40:32;2.72;;;1.10;;
55417;SDS011;41287;47.554;7.844;2023-04-15T01:42:59;3.40;;;1.08;;
55417;SDS011;41287;47.554;7.844;2023-04-15T01:45:27;2.80;;;1.10;;
55417;SDS011;41287;47.554;7.844;2023-04-15T01:47:53;2.28;;;0.90;;
55417;SDS011;41287;47.554;7.844;2023-04-15T01:50:18;3.33;;;1.05;;
55417;SDS011;41287;47.554;7.844;2023-04-15T01:52:46;2.30;;;0.93;;
55417;SDS011;41287;47.554;7.844;2023-04-15T01:55:12;2.40;;;0.95;;
55417;SDS011;41287;47.554;7.844;2023-04-15T01:57:38;3.70;;;1.10;;
55417;SDS011;41287;47.554;7.844;2023-04-15T02:00:03;3.50;;;1.10;;
55417;SDS011;41287;47.554;7.844;2023-04-15T02:02:31;4.80;;;1.15;;
55417;SDS011;41287;47.554;7.844;2023-04-15T02:04:57;4.35;;;1.13;;
55417;SDS011;41287;47.554;7.844;2023-04-15T02:07:24;2.20;;;1.08;;
55417;SDS011;41287;47.554;7.844;2023-04-15T02:09:50;4.22;;;1.10;;
55417;SDS011;41287;47.554;7.844;2023-04-15T02:12:15;2.17;;;1.08;;
55417;SDS011;41287;47.554;7.844;2023-04-15T02:14:40;2.72;;;1.10;;
55417;SDS011;41287;47.554;7.844;2023-04-15T02:17:06;3.88;;;1.10;;
55417;SDS011;41287;47.554;7.844;2023-04-15T02:19:34;4.32;;;1.10;;
55417;SDS011;41287;47.554;7.844;2023-04-15T02:21:59;1.98;;;0.75;;
55417;SDS011;41287;47.554;7.844;2023-04-15T02:24:28;2.30;;;1.10;;
55417;SDS011;41287;47.554;7.844;2023-04-15T02:26:54;1.85;;;0.90;;
55417;SDS011;41287;47.554;7.844;2023-04-15T02:29:20;1.42;;;0.82;;
55417;SDS011;41287;47.554;7.844;2023-04-15T02:31:47;2.50;;;0.90;;
55417;SDS011;41287;47.554;7.844;2023-04-15T02:34:13;3.33;;;1.20;;
55417;SDS011;41287;47.554;7.844;2023-04-15T02:36:38;2.15;;;0.90;;
55417;SDS011;41287;47.554;7.844;2023-04-15T02:39:04;1.58;;;0.95;;
55417;SDS011;41287;47.554;7.844;2023-04-15T02:41:31;1.25;;;0.80;;
55417;SDS011;41287;47.554;7.844;2023-04-15T02:43:57;2.13;;;0.90;;
55417;SDS011;41287;47.554;7.844;2023-04-15T02:46:22;3.08;;;1.10;;
55417;SDS011;41287;47.554;7.844;2023-04-15T02:48:48;1.58;;;0.68;;
55417;SDS011;41287;47.554;7.844;2023-04-15T02:51:14;1.35;;;0.52;;
55417;SDS011;41287;47.554;7.844;2023-04-15T02:53:43;2.65;;;1.00;;
55417;SDS011;41287;47.554;7.844;2023-04-15T02:56:09;7.25;;;1.25;;
55417;SDS011;41287;47.554;7.844;2023-04-15T02:58:35;1.77;;;0.80;;
55417;SDS011;41287;47.554;7.844;2023-04-15T03:01:01;2.28;;;1.02;;
55417;SDS011;41287;47.554;7.844;2023-04-15T03:03:27;1.70;;;0.93;;
55417;SDS011;41287;47.554;7.844;2023-04-15T03:05:52;4.15;;;1.15;;
55417;SDS011;41287;47.554;7.844;2023-04-15T03:08:18;2.40;;;1.08;;
55417;SDS011;41287;47.554;7.844;2023-04-15T03:10:45;2.63;;;1.10;;
55417;SDS011;41287;47.554;7.844;2023-04-15T03:13:10;2.92;;;1.00;;
55417;SDS011;41287;47.554;7.844;2023-04-15T03:15:39;4.88;;;1.10;;
55417;SDS011;41287;47.554;7.844;2023-04-15T03:18:04;2.20;;;0.98;;
55417;SDS011;41287;47.554;7.844;2023-04-15T03:20:30;2.08;;;0.90;;
55417;SDS011;41287;47.554;7.844;2023-04-15T03:22:55;2.13;;;1.13;;
55417;SDS011;41287;47.554;7.844;2023-04-15T03:25:20;3.17;;;0.90;;
55417;SDS011;41287;47.554;7.844;2023-04-15T03:27:46;2.25;;;0.90;;
55417;SDS011;41287;47.554;7.844;2023-04-15T03:30:11;4.18;;;1.20;;
55417;SDS011;41287;47.554;7.844;2023-04-15T03:32:37;4.30;;;1.20;;
55417;SDS011;41287;47.554;7.844;2023-04-15T03:35:03;2.17;;;0.80;;
55417;SDS011;41287;47.554;7.844;2023-04-15T03:37:28;3.42;;;0.90;;
55417;SDS011;41287;47.554;7.844;2023-04-15T03:39:54;3.63;;;1.00;;
55417;SDS011;41287;47.554;7.844;2023-04-15T03:42:19;2.67;;;0.90;;
55417;SDS011;41287;47.554;7.844;2023-04-15T03:44:45;4.03;;;1.00;;
55417;SDS011;41287;47.554;7.844;2023-04-15T03:47:10;3.13;;;1.20;;
55417;SDS011;41287;47.554;7.844;2023-04-15T03:49:36;3.10;;;0.90;;
55417;SDS011;41287;47.554;7.844;2023-04-15T03:52:01;3.55;;;1.00;;
55417;SDS011;41287;47.554;7.844;2023-04-15T03:54:30;1.80;;;0.90;;
55417;SDS011;41287;47.554;7.844;2023-04-15T03:56:56;2.90;;;1.00;;
55417;SDS011;41287;47.554;7.844;2023-04-15T03:59:23;2.47;;;1.00;;
55417;SDS011;41287;47.554;7.844;2023-04-15T04:01:49;1.85;;;0.88;;
55417;SDS011;41287;47.554;7.844;2023-04-15T04:04:20;2.88;;;1.15;;
55417;SDS011;41287;47.554;7.844;2023-04-15T04:06:45;1.83;;;0.85;;
55417;SDS011;41287;47.554;7.844;2023-04-15T04:09:11;2.97;;;1.10;;
55417;SDS011;41287;47.554;7.844;2023-04-15T04:11:36;2.30;;;0.93;;
55417;SDS011;41287;47.554;7.844;2023-04-15T04:14:01;1.95;;;0.68;;
55417;SDS011;41287;47.554;7.844;2023-04-15T04:16:27;3.60;;;0.88;;
55417;SDS011;41287;47.554;7.844;2023-04-15T04:18:52;1.35;;;0.75;;
55417;SDS011;41287;47.554;7.844;2023-04-15T04:21:21;2.65;;;0.93;;
55417;SDS011;41287;47.554;7.844;2023-04-15T04:23:46;2.85;;;0.90;;
55417;SDS011;41287;47.554;7.844;2023-04-15T04:26:12;3.17;;;0.98;;
55417;SDS011;41287;47.554;7.844;2023-04-15T04:28:37;4.30;;;0.82;;
55417;SDS011;41287;47.554;7.844;2023-04-15T04:31:04;2.00;;;0.75;;
55417;SDS011;41287;47.554;7.844;2023-04-15T04:33:30;1.83;;;0.80;;
55417;SDS011;41287;47.554;7.844;2023-04-15T04:35:56;2.03;;;0.70;;
55417;SDS011;41287;47.554;7.844;2023-04-15T04:38:21;2.05;;;0.88;;
55417;SDS011;41287;47.554;7.844;2023-04-15T04:40:47;0.98;;;0.50;;
55417;SDS011;41287;47.554;7.844;2023-04-15T04:43:12;0.95;;;0.60;;
55417;SDS011;41287;47.554;7.844;2023-04-15T04:45:38;1.50;;;0.82;;
55417;SDS011;41287;47.554;7.844;2023-04-15T04:48:04;1.60;;;0.70;;
55417;SDS011;41287;47.554;7.844;2023-04-15T04:50:31;1.40;;;0.68;;
55417;SDS011;41287;47.554;7.844;2023-04-15T04:52:56;1.30;;;0.70;;
55417;SDS011;41287;47.554;7.844;2023-04-15T04:55:21;2.17;;;0.50;;
55417;SDS011;41287;47.554;7.844;2023-04-15T04:57:47;2.80;;;0.70;;
55417;SDS011;41287;47.554;7.844;2023-04-15T05:00:12;1.42;;;0.70;;
55417;SDS011;41287;47.554;7.844;2023-04-15T05:02:38;2.25;;;0.60;;
55417;SDS011;41287;47.554;7.844;2023-04-15T05:05:03;1.05;;;0.55;;
55417;SDS011;41287;47.554;7.844;2023-04-15T05:07:32;2.85;;;0.70;;
55417;SDS011;41287;47.554;7.844;2023-04-15T05:09:58;1.38;;;0.70;;
55417;SDS011;41287;47.554;7.844;2023-04-15T05:12:23;0.93;;;0.82;;
55417;SDS011;41287;47.554;7.844;2023-04-15T05:14:48;1.38;;;0.60;;
55417;SDS011;41287;47.554;7.844;2023-04-15T05:17:15;2.95;;;0.80;;
55417;SDS011;41287;47.554;7.844;2023-04-15T05:19:41;1.92;;;0.65;;
55417;SDS011;41287;47.554;7.844;2023-04-15T05:22:06;1.63;;;0.65;;
55417;SDS011;41287;47.554;7.844;2023-04-15T05:24:32;8.25;;;0.82;;
55417;SDS011;41287;47.554;7.844;2023-04-15T05:26:57;2.90;;;0.93;;
55417;SDS011;41287;47.554;7.844;2023-04-15T05:29:22;2.42;;;0.80;;
55417;SDS011;41287;47.554;7.844;2023-04-15T05:31:51;1.23;;;0.93;;
55417;SDS011;41287;47.554;7.844;2023-04-15T05:34:16;2.88;;;0.80;;
55417;SDS011;41287;47.554;7.844;2023-04-15T05:36:42;1.05;;;0.60;;
55417;SDS011;41287;47.554;7.844;2023-04-15T05:39:07;1.38;;;0.55;;
55417;SDS011;41287;47.554;7.844;2023-04-15T05:41:33;4.05;;;0.88;;
55417;SDS011;41287;47.554;7.844;2023-04-15T05:43:58;0.85;;;0.60;;
55417;SDS011;41287;47.554;7.844;2023-04-15T05:46:24;1.60;;;0.50;;
55417;SDS011;41287;47.554;7.844;2023-04-15T05:48:49;2.47;;;0.47;;
55417;SDS011;41287;47.554;7.844;2023-04-15T05:51:17;1.63;;;0.60;;
55417;SDS011;41287;47.554;7.844;2023-04-15T05:53:42;0.77;;;0.57;;
55417;SDS011;41287;47.554;7.844;2023-04-15T05:56:07;2.28;;;0.70;;
55417;SDS011;41287;47.554;7.844;2023-04-15T05:58:32;4.00;;;0.50;;
55417;SDS011;41287;47.554;7.844;2023-04-15T06:00:58;1.30;;;0.60;;
55417;SDS011;41287;47.554;7.844;2023-04-15T06:03:24;1.52;;;0.70;;
55417;SDS011;41287;47.554;7.844;2023-04-15T06:05:49;1.73;;;0.60;;
55417;SDS011;41287;47.554;7.844;2023-04-15T06:08:14;4.10;;;1.05;;
55417;SDS011;41287;47.554;7.844;2023-04-15T06:10:40;5.00;;;0.80;;
55417;SDS011;41287;47.554;7.844;2023-04-15T06:13:05;1.85;;;0.50;;
55417;SDS011;41287;47.554;7.844;2023-04-15T06:15:31;2.78;;;0.65;;
55417;SDS011;41287;47.554;7.844;2023-04-15T06:17:57;2.75;;;1.05;;
55417;SDS011;41287;47.554;7.844;2023-04-15T06:20:22;2.45;;;0.70;;
55417;SDS011;41287;47.554;7.844;2023-04-15T06:22:48;0.90;;;0.60;;
55417;SDS011;41287;47.554;7.844;2023-04-15T06:25:13;1.85;;;0.80;;
55417;SDS011;41287;47.554;7.844;2023-04-15T06:27:39;1.80;;;0.60;;
55417;SDS011;41287;47.554;7.844;2023-04-15T06:30:04;2.03;;;0.77;;
55417;SDS011;41287;47.554;7.844;2023-04-15T06:32:31;2.25;;;0.70;;
55417;SDS011;41287;47.554;7.844;2023-04-15T06:34:56;1.08;;;0.60;;
55417;SDS011;41287;47.554;7.844;2023-04-15T06:37:22;0.82;;;0.50;;
55417;SDS011;41287;47.554;7.844;2023-04-15T06:39:49;1.15;;;0.75;;
55417;SDS011;41287;47.554;7.844;2023-04-15T06:42:15;1.15;;;0.60;;
55417;SDS011;41287;47.554;7.844;2023-04-15T06:44:41;3.05;;;0.70;;
55417;SDS011;41287;47.554;7.844;2023-04-15T06:47:06;1.67;;;0.65;;
55417;SDS011;41287;47.554;7.844;2023-04-15T06:49:33;1.17;;;0.60;;
55417;SDS011;41287;47.554;7.844;2023-04-15T06:52:01;2.60;;;0.70;;
55417;SDS011;41287;47.554;7.844;2023-04-15T06:54:28;2.72;;;0.60;;
55417;SDS011;41287;47.554;7.844;2023-04-15T06:56:54;0.75;;;0.40;;
55417;SDS011;41287;47.554;7.844;2023-04-15T06:59:19;0.70;;;0.50;;
55417;SDS011;41287;47.554;7.844;2023-04-15T07:01:45;1.27;;;0.50;;
55417;SDS011;41287;47.554;7.844;2023-04-15T07:04:12;2.38;;;0.57;;
55417;SDS011;41287;47.554;7.844;2023-04-15T07:06:38;1.23;;;0.70;;
55417;SDS011;41287;47.554;7.844;2023-04-15T07:09:03;1.23;;;0.70;;
55417;SDS011;41287;47.554;7.844;2023-04-15T07:11:29;1.77;;;0.65;;
55417;SDS011;41287;47.554;7.844;2023-04-15T07:13:56;1.33;;;0.50;;
55417;SDS011;41287;47.554;7.844;2023-04-15T07:16:22;2.05;;;0.50;;
55417;SDS011;41287;47.554;7.844;2023-04-15T07:18:47;0.93;;;0.60;;
55417;SDS011;41287;47.554;7.844;2023-04-15T07:21:12;4.85;;;1.15;;
55417;SDS011;41287;47.554;7.844;2023-04-15T07:23:38;1.67;;;0.55;;
55417;SDS011;41287;47.554;7.844;2023-04-15T07:26:03;3.60;;;1.08;;
55417;SDS011;41287;47.554;7.844;2023-04-15T07:28:28;2.00;;;0.75;;
55417;SDS011;41287;47.554;7.844;2023-04-15T07:30:54;1.15;;;0.52;;
55417;SDS011;41287;47.554;7.844;2023-04-15T07:33:21;2.28;;;0.60;;
55417;SDS011;41287;47.554;7.844;2023-04-15T07:35:47;0.60;;;0.60;;
55417;SDS011;41287;47.554;7.844;2023-04-15T07:38:12;2.00;;;0.70;;
55417;SDS011;41287;47.554;7.844;2023-04-15T07:40:41;1.27;;;0.63;;
55417;SDS011;41287;47.554;7.844;2023-04-15T07:43:06;1.35;;;0.85;;
55417;SDS011;41287;47.554;7.844;2023-04-15T07:45:32;1.25;;;0.63;;
55417;SDS011;41287;47.554;7.844;2023-04-15T07:47:59;1.27;;;0.60;;
55417;SDS011;41287;47.554;7.844;2023-04-15T07:50:25;1.42;;;0.50;;
55417;SDS011;41287;47.554;7.844;2023-04-15T07:52:53;0.73;;;0.60;;
55417;SDS011;41287;47.554;7.844;2023-04-15T07:55:18;1.77;;;0.50;;
55417;SDS011;41287;47.554;7.844;2023-04-15T07:57:47;1.92;;;0.73;;
55417;SDS011;41287;47.554;7.844;2023-04-15T08:00:13;1.30;;;0.55;;
55417;SDS011;41287;47.554;7.844;2023-04-15T08:02:38;1.95;;;0.50;;
55417;SDS011;41287;47.554;7.844;2023-04-15T08:05:08;0.88;;;0.52;;
55417;SDS011;41287;47.554;7.844;2023-04-15T08:07:34;1.10;;;0.50;;
55417;SDS011;41287;47.554;7.844;2023-04-15T08:10:02;1.95;;;0.63;;
55417;SDS011;41287;47.554;7.844;2023-04-15T08:12:31;3.38;;;0.70;;
55417;SDS011;41287;47.554;7.844;2023-04-15T08:14:57;1.58;;;0.65;;
55417;SDS011;41287;47.554;7.844;2023-04-15T08:17:22;1.05;;;0.60;;
55417;SDS011;41287;47.554;7.844;2023-04-15T08:19:48;6.80;;;0.80;;
55417;SDS011;41287;47.554;7.844;2023-04-15T08:22:13;2.00;;;0.50;;
55417;SDS011;41287;47.554;7.844;2023-04-15T08:24:39;2.38;;;0.73;;
55417;SDS011;41287;47.554;7.844;2023-04-15T08:27:07;3.80;;;0.80;;
55417;SDS011;41287;47.554;7.844;2023-04-15T08:29:33;1.13;;;0.43;;
55417;SDS011;41287;47.554;7.844;2023-04-15T08:31:59;2.75;;;0.50;;
55417;SDS011;41287;47.554;7.844;2023-04-15T08:34:28;2.10;;;0.70;;
55417;SDS011;41287;47.554;7.844;2023-04-15T08:36:53;1.73;;;0.88;;
55417;SDS011;41287;47.554;7.844;2023-04-15T08:39:19;1.88;;;0.60;;
55417;SDS011;41287;47.554;7.844;2023-04-15T08:41:45;1.30;;;0.90;;
55417;SDS011;41287;47.554;7.844;2023-04-15T08:44:13;2.63;;;0.80;;
55417;SDS011;41287;47.554;7.844;2023-04-15T08:46:39;1.15;;;0.43;;
55417;SDS011;41287;47.554;7.844;2023-04-15T08:49:07;1.40;;;0.60;;
55417;SDS011;41287;47.554;7.844;2023-04-15T08:51:35;1.83;;;0.60;;
55417;SDS011;41287;47.554;7.844;2023-04-15T08:54:02;1.85;;;0.50;;
55417;SDS011;41287;47.554;7.844;2023-04-15T08:56:29;0.85;;;0.50;;
55417;SDS011;41287;47.554;7.844;2023-04-15T08:58:58;1.25;;;0.60;;
55417;SDS011;41287;47.554;7.844;2023-04-15T09:01:24;1.48;;;0.68;;
55417;SDS011;41287;47.554;7.844;2023-04-15T09:03:50;2.17;;;0.65;;
55417;SDS011;41287;47.554;7.844;2023-04-15T09:06:18;2.13;;;0.88;;
55417;SDS011;41287;47.554;7.844;2023-04-15T09:08:44;1.27;;;0.60;;
55417;SDS011;41287;47.554;7.844;2023-04-15T09:11:10;1.50;;;0.60;;
55417;SDS011;41287;47.554;7.844;2023-04-15T09:13:38;1.15;;;0.50;;
55417;SDS011;41287;47.554;7.844;2023-04-15T09:16:04;2.40;;;0.40;;
55417;SDS011;41287;47.554;7.844;2023-04-15T09:18:31;1.98;;;0.50;;
55417;SDS011;41287;47.554;7.844;2023-04-15T09:23:35;1.55;;;0.80;;
55417;SDS011;41287;47.554;7.844;2023-04-15T09:26:02;3.55;;;0.70;;
55417;SDS011;41287;47.554;7.844;2023-04-15T09:28:28;4.10;;;0.70;;
55417;SDS011;41287;47.554;7.844;2023-04-15T09:30:57;1.13;;;0.55;;
55417;SDS011;41287;47.554;7.844;2023-04-15T09:33:26;2.10;;;0.50;;
55417;SDS011;41287;47.554;7.844;2023-04-15T09:35:57;1.67;;;0.93;;
55417;SDS011;41287;47.554;7.844;2023-04-15T09:38:24;1.48;;;0.70;;
55417;SDS011;41287;47.554;7.844;2023-04-15T09:40:49;1.05;;;0.40;;
55417;SDS011;41287;47.554;7.844;2023-04-15T09:43:15;1.48;;;0.50;;
55417;SDS011;41287;47.554;7.844;2023-04-15T09:45:48;2.55;;;0.98;;
55417;SDS011;41287;47.554;7.844;2023-04-15T09:48:16;2.00;;;0.68;;
55417;SDS011;41287;47.554;7.844;2023-04-15T09:50:47;1.10;;;0.63;;
55417;SDS011;41287;47.554;7.844;2023-04-15T09:53:20;1.10;;;0.50;;
55417;SDS011;41287;47.554;7.844;2023-04-15T09:55:57;3.15;;;0.90;;
55417;SDS011;41287;47.554;7.844;2023-04-15T09:58:27;1.50;;;0.60;;
55417;SDS011;41287;47.554;7.844;2023-04-15T10:00:55;1.77;;;0.65;;
55417;SDS011;41287;47.554;7.844;2023-04-15T10:03:25;2.22;;;0.70;;
55417;SDS011;41287;47.554;7.844;2023-04-15T10:05:52;1.35;;;0.55;;
55417;SDS011;41287;47.554;7.844;2023-04-15T10:08:21;1.23;;;0.77;;
55417;SDS011;41287;47.554;7.844;2023-04-15T10:10:49;3.03;;;0.60;;
55417;SDS011;41287;47.554;7.844;2023-04-15T10:13:19;4.32;;;0.57;;
55417;SDS011;41287;47.554;7.844;2023-04-15T10:15:55;2.88;;;0.60;;
55417;SDS011;41287;47.554;7.844;2023-04-15T10:18:22;1.83;;;0.50;;
55417;SDS011;41287;47.554;7.844;2023-04-15T10:20:50;0.60;;;0.40;;
55417;SDS011;41287;47.554;7.844;2023-04-15T10:23:16;1.50;;;0.65;;
55417;SDS011;41287;47.554;7.844;2023-04-15T10:25:49;1.75;;;0.52;;
55417;SDS011;41287;47.554;7.844;2023-04-15T10:28:16;4.95;;;0.70;;
55417;SDS011;41287;47.554;7.844;2023-04-15T10:30:42;1.98;;;0.60;;
55417;SDS011;41287;47.554;7.844;2023-04-15T10:33:08;2.88;;;0.52;;
55417;SDS011;41287;47.554;7.844;2023-04-15T10:35:35;2.15;;;0.80;;
55417;SDS011;41287;47.554;7.844;2023-04-15T10:38:01;1.95;;;0.77;;
55417;SDS011;41287;47.554;7.844;2023-04-15T10:40:27;0.95;;;0.50;;
55417;SDS011;41287;47.554;7.844;2023-04-15T10:42:57;1.85;;;0.70;;
55417;SDS011;41287;47.554;7.844;2023-04-15T10:45:25;3.13;;;0.77;;
55417;SDS011;41287;47.554;7.844;2023-04-15T10:47:55;3.58;;;0.65;;
55417;SDS011;41287;47.554;7.844;2023-04-15T10:50:24;1.65;;;0.50;;
55417;SDS011;41287;47.554;7.844;2023-04-15T10:52:51;2.42;;;0.60;;
55417;SDS011;41287;47.554;7.844;2023-04-15T10:55:23;1.77;;;0.73;;
55417;SDS011;41287;47.554;7.844;2023-04-15T10:57:58;2.75;;;0.80;;
55417;SDS011;41287;47.554;7.844;2023-04-15T11:00:27;1.95;;;0.65;;
55417;SDS011;41287;47.554;7.844;2023-04-15T11:03:14;4.85;;;0.95;;
55417;SDS011;41287;47.554;7.844;2023-04-15T11:05:49;1.95;;;0.60;;
55417;SDS011;41287;47.554;7.844;2023-04-15T11:08:16;2.17;;;0.73;;
55417;SDS011;41287;47.554;7.844;2023-04-15T11:15:41;0.98;;;0.70;;
55417;SDS011;41287;47.554;7.844;2023-04-15T11:20:37;0.65;;;0.47;;
55417;SDS011;41287;47.554;7.844;2023-04-15T11:23:04;1.88;;;0.70;;
55417;SDS011;41287;47.554;7.844;2023-04-15T11:25:30;1.80;;;0.50;;
55417;SDS011;41287;47.554;7.844;2023-04-15T11:27:58;2.28;;;0.70;;
55417;SDS011;41287;47.554;7.844;2023-04-15T11:30:25;1.27;;;0.70;;
55417;SDS011;41287;47.554;7.844;2023-04-15T11:32:53;1.17;;;0.63;;
55417;SDS011;41287;47.554;7.844;2023-04-15T11:35:22;1.23;;;0.63;;
55417;SDS011;41287;47.554;7.844;2023-04-15T11:37:48;1.40;;;0.55;;
55417;SDS011;41287;47.554;7.844;2023-04-15T11:40:14;2.03;;;0.50;;
55417;SDS011;41287;47.554;7.844;2023-04-15T11:43:11;1.40;;;0.55;;
55417;SDS011;41287;47.554;7.844;2023-04-15T11:45:37;1.52;;;0.50;;
55417;SDS011;41287;47.554;7.844;2023-04-15T11:48:11;0.98;;;0.50;;
55417;SDS011;41287;47.554;7.844;2023-04-15T11:50:38;1.77;;;0.80;;
55417;SDS011;41287;47.554;7.844;2023-04-15T11:53:08;2.65;;;0.75;;
55417;SDS011;41287;47.554;7.844;2023-04-15T11:55:42;1.75;;;0.52;;
55417;SDS011;41287;47.554;7.844;2023-04-15T11:58:12;2.95;;;0.95;;
55417;SDS011;41287;47.554;7.844;2023-04-15T12:00:50;2.90;;;0.80;;
55417;SDS011;41287;47.554;7.844;2023-04-15T12:11:31;2.38;;;0.70;;
55417;SDS011;41287;47.554;7.844;2023-04-15T12:14:05;1.48;;;0.60;;
55417;SDS011;41287;47.554;7.844;2023-04-15T12:16:37;4.30;;;0.75;;
55417;SDS011;41287;47.554;7.844;2023-04-15T12:19:05;1.40;;;0.60;;
55417;SDS011;41287;47.554;7.844;2023-04-15T12:21:35;1.23;;;0.57;;
55417;SDS011;41287;47.554;7.844;2023-04-15T12:24:03;2.53;;;0.70;;
55417;SDS011;41287;47.554;7.844;2023-04-15T12:26:34;3.92;;;0.65;;
55417;SDS011;41287;47.554;7.844;2023-04-15T12:29:02;17.05;;;1.00;;
55417;SDS011;41287;47.554;7.844;2023-04-15T12:31:28;5.65;;;0.90;;
55417;SDS011;41287;47.554;7.844;2023-04-15T12:33:55;4.05;;;0.90;;
55417;SDS011;41287;47.554;7.844;2023-04-15T12:36:21;1.25;;;0.70;;
55417;SDS011;41287;47.554;7.844;2023-04-15T12:38:47;5.18;;;0.80;;
55417;SDS011;41287;47.554;7.844;2023-04-15T12:41:12;3.03;;;0.80;;
55417;SDS011;41287;47.554;7.844;2023-04-15T12:43:37;3.70;;;0.70;;
55417;SDS011;41287;47.554;7.844;2023-04-15T12:46:03;3.53;;;0.90;;
55417;SDS011;41287;47.554;7.844;2023-04-15T12:48:28;9.13;;;0.90;;
55417;SDS011;41287;47.554;7.844;2023-04-15T12:50:56;1.40;;;0.55;;
55417;SDS011;41287;47.554;7.844;2023-04-15T12:53:22;2.22;;;0.65;;
55417;SDS011;41287;47.554;7.844;2023-04-15T12:55:47;3.67;;;0.95;;
55417;SDS011;41287;47.554;7.844;2023-04-15T12:58:12;4.75;;;0.80;;
55417;SDS011;41287;47.554;7.844;2023-04-15T13:00:38;3.58;;;0.80;;
55417;SDS011;41287;47.554;7.844;2023-04-15T13:03:05;2.05;;;0.60;;
55417;SDS011;41287;47.554;7.844;2023-04-15T13:05:31;4.30;;;0.80;;
55417;SDS011;41287;47.554;7.844;2023-04-15T13:07:56;2.15;;;0.60;;
55417;SDS011;41287;47.554;7.844;2023-04-15T13:10:21;4.22;;;0.60;;
55417;SDS011;41287;47.554;7.844;2023-04-15T13:12:50;7.60;;;0.90;;
55417;SDS011;41287;47.554;7.844;2023-04-15T13:15:18;2.67;;;0.85;;
55417;SDS011;41287;47.554;7.844;2023-04-15T13:17:46;2.75;;;0.80;;
55417;SDS011;41287;47.554;7.844;2023-04-15T13:20:11;3.17;;;0.95;;
55417;SDS011;41287;47.554;7.844;2023-04-15T13:22:37;4.47;;;0.63;;
55417;SDS011;41287;47.554;7.844;2023-04-15T13:25:03;3.00;;;0.80;;
55417;SDS011;41287;47.554;7.844;2023-04-15T13:27:31;2.83;;;0.65;;
55417;SDS011;41287;47.554;7.844;2023-04-15T13:29:57;1.33;;;0.60;;
55417;SDS011;41287;47.554;7.844;2023-04-15T13:32:23;1.27;;;0.50;;
55417;SDS011;41287;47.554;7.844;2023-04-15T13:34:48;0.95;;;0.50;;
55417;SDS011;41287;47.554;7.844;2023-04-15T13:37:13;3.53;;;0.68;;
55417;SDS011;41287;47.554;7.844;2023-04-15T13:39:42;2.05;;;0.50;;
55417;SDS011;41287;47.554;7.844;2023-04-15T13:42:07;2.45;;;0.73;;
55417;SDS011;41287;47.554;7.844;2023-04-15T13:44:33;4.32;;;0.77;;
55417;SDS011;41287;47.554;7.844;2023-04-15T13:46:59;1.70;;;0.47;;
55417;SDS011;41287;47.554;7.844;2023-04-15T13:49:25;1.55;;;0.45;;
55417;SDS011;41287;47.554;7.844;2023-04-15T13:51:50;4.40;;;0.93;;
55417;SDS011;41287;47.554;7.844;2023-04-15T13:54:16;4.10;;;1.05;;
55417;SDS011;41287;47.554;7.844;2023-04-15T13:56:41;1.23;;;0.40;;
55417;SDS011;41287;47.554;7.844;2023-04-15T13:59:07;2.92;;;0.50;;
55417;SDS011;41287;47.554;7.844;2023-04-15T14:01:33;2.85;;;0.50;;
55417;SDS011;41287;47.554;7.844;2023-04-15T14:03:58;2.53;;;0.63;;
55417;SDS011;41287;47.554;7.844;2023-04-15T14:06:24;0.98;;;0.47;;
55417;SDS011;41287;47.554;7.844;2023-04-15T14:08:51;1.88;;;0.43;;
55417;SDS011;41287;47.554;7.844;2023-04-15T14:11:17;1.45;;;0.63;;
55417;SDS011;41287;47.554;7.844;2023-04-15T14:13:42;1.60;;;0.55;;
55417;SDS011;41287;47.554;7.844;2023-04-15T14:16:09;0.73;;;0.32;;
55417;SDS011;41287;47.554;7.844;2023-04-15T14:18:35;1.75;;;0.38;;
55417;SDS011;41287;47.554;7.844;2023-04-15T14:21:01;3.03;;;0.50;;
55417;SDS011;41287;47.554;7.844;2023-04-15T14:23:27;3.70;;;0.63;;
55417;SDS011;41287;47.554;7.844;2023-04-15T14:25:53;2.00;;;0.38;;
55417;SDS011;41287;47.554;7.844;2023-04-15T14:28:18;1.58;;;0.60;;
55417;SDS011;41287;47.554;7.844;2023-04-15T14:30:44;2.85;;;0.80;;
55417;SDS011;41287;47.554;7.844;2023-04-15T14:33:09;1.92;;;0.57;;
55417;SDS011;41287;47.554;7.844;2023-04-15T14:35:34;2.17;;;0.63;;
55417;SDS011;41287;47.554;7.844;2023-04-15T14:38:03;1.30;;;0.70;;
55417;SDS011;41287;47.554;7.844;2023-04-15T14:40:30;0.82;;;0.40;;
55417;SDS011;41287;47.554;7.844;2023-04-15T14:42:55;1.48;;;0.50;;
55417;SDS011;41287;47.554;7.844;2023-04-15T14:45:24;0.75;;;0.40;;
55417;SDS011;41287;47.554;7.844;2023-04-15T14:47:49;8.82;;;0.90;;
55417;SDS011;41287;47.554;7.844;2023-04-15T14:50:15;3.35;;;0.60;;
55417;SDS011;41287;47.554;7.844;2023-04-15T14:52:42;2.83;;;0.60;;
55417;SDS011;41287;47.554;7.844;2023-04-15T14:55:08;1.75;;;0.50;;
55417;SDS011;41287;47.554;7.844;2023-04-15T14:57:35;1.23;;;0.55;;
55417;SDS011;41287;47.554;7.844;2023-04-15T15:00:03;1.70;;;0.50;;
55417;SDS011;41287;47.554;7.844;2023-04-15T15:02:30;4.45;;;0.60;;
55417;SDS011;41287;47.554;7.844;2023-04-15T15:04:56;0.55;;;0.40;;